Time;durP1;ratioP1;P1;durP2;ratioP2;P2;SDS_P1;SDS_P2;PMS_P1;PMS_P2;Temp;Humidity;BMP_temperature;BMP_pressure;BME280_temperature;BME280_humidity;BME280_pressure;Samples;Min_cycle;Max_cycle;Signal;HPM_P1;HPM_P2
2022/10/02 00:00:37;;;;;;;15.30;5.53;;;;;;;;;;5075275;28;20439;-68
2022/10/02 00:03:07;;;;;;;14.32;4.78;;;;;;;;;;5075534;28;20443;-68
2022/10/02 00:05:37;;;;;;;13.43;6.60;;;;;;;;;;5075732;28;20201;-68
2022/10/02 00:08:06;;;;;;;22.02;5.40;;;;;;;;;;5075500;28;20763;-68
2022/10/02 00:10:36;;;;;;;23.50;5.13;;;;;;;;;;5075105;28;20229;-68
2022/10/02 00:13:05;;;;;;;19.47;4.67;;;;;;;;;;5074513;28;20472;-68
2022/10/02 00:15:34;;;;;;;16.20;5.95;;;;;;;;;;5073812;28;20441;-68
2022/10/02 00:18:03;;;;;;;18.87;6.20;;;;;;;;;;5075112;28;20679;-68
2022/10/02 00:20:32;;;;;;;13.93;5.80;;;;;;;;;;5074800;28;20528;-68
2022/10/02 00:23:02;;;;;;;22.00;5.50;;;;;;;;;;5075379;28;20447;-68
2022/10/02 00:25:33;;;;;;;11.70;6.67;;;;;;;;;;5074377;28;20436;-68
2022/10/02 00:28:07;;;;;;;12.63;4.97;;;;;;;;;;5075448;28;20450;-68
2022/10/02 00:30:37;;;;;;;16.90;5.03;;;;;;;;;;5074593;28;20433;-68
2022/10/02 00:33:11;;;;;;;15.90;6.90;;;;;;;;;;5074317;28;20228;-69
2022/10/02 00:35:53;;;;;;;12.83;6.77;;;;;;;;;;5074600;28;20451;-68
2022/10/02 00:38:25;;;;;;;10.77;5.97;;;;;;;;;;5061553;28;20455;-68
2022/10/02 00:41:11;;;;;;;24.10;5.67;;;;;;;;;;5074428;28;20444;-68
2022/10/02 00:43:48;;;;;;;21.07;5.90;;;;;;;;;;5074325;28;20440;-68
2022/10/02 00:46:28;;;;;;;24.73;6.10;;;;;;;;;;5074227;28;20440;-68
2022/10/02 00:49:06;;;;;;;19.20;6.00;;;;;;;;;;5073950;28;20508;-69
2022/10/02 00:51:41;;;;;;;13.97;5.70;;;;;;;;;;5074652;28;20432;-68
2022/10/02 00:54:14;;;;;;;11.70;5.60;;;;;;;;;;5074299;28;20471;-68
2022/10/02 00:56:45;;;;;;;23.63;6.23;;;;;;;;;;5074297;28;20437;-68
2022/10/02 00:59:19;;;;;;;17.20;7.22;;;;;;;;;;5073743;28;20433;-68
2022/10/02 01:01:49;;;;;;;18.13;6.50;;;;;;;;;;5074143;28;20214;-68
2022/10/02 01:04:20;;;;;;;19.40;5.60;;;;;;;;;;5073571;28;20453;-67
2022/10/02 01:06:47;;;;;;;22.37;5.50;;;;;;;;;;5074246;28;20437;-68
2022/10/02 01:09:15;;;;;;;21.20;6.20;;;;;;;;;;5073783;28;20452;-68
2022/10/02 01:11:43;;;;;;;23.27;5.63;;;;;;;;;;5073891;28;20441;-67
2022/10/02 01:14:11;;;;;;;29.07;6.23;;;;;;;;;;5073654;28;20487;-68
2022/10/02 01:16:40;;;;;;;18.67;6.33;;;;;;;;;;5073439;28;20473;-67
2022/10/02 01:19:13;;;;;;;17.50;5.47;;;;;;;;;;5073681;28;20498;-68
2022/10/02 01:21:43;;;;;;;22.33;6.80;;;;;;;;;;5073994;28;20429;-67
2022/10/02 01:24:13;;;;;;;15.40;5.70;;;;;;;;;;5073310;28;20520;-68
2022/10/02 01:26:41;;;;;;;24.40;8.67;;;;;;;;;;5073524;28;20788;-68
2022/10/02 01:29:09;;;;;;;21.87;6.00;;;;;;;;;;5073631;28;20777;-67
2022/10/02 01:31:36;;;;;;;23.03;6.40;;;;;;;;;;5073695;28;20464;-67
2022/10/02 01:34:04;;;;;;;28.87;6.07;;;;;;;;;;5073151;28;20482;-67
2022/10/02 01:36:31;;;;;;;21.00;6.10;;;;;;;;;;5073436;28;20451;-68
2022/10/02 01:38:59;;;;;;;16.80;7.00;;;;;;;;;;5073136;28;20444;-68
2022/10/02 01:41:26;;;;;;;26.33;7.20;;;;;;;;;;5073045;28;20479;-68
2022/10/02 01:43:56;;;;;;;15.60;5.80;;;;;;;;;;5073426;28;20444;-68
2022/10/02 01:46:33;;;;;;;24.40;6.30;;;;;;;;;;5073358;28;20452;-68
2022/10/02 01:49:07;;;;;;;20.50;6.40;;;;;;;;;;5073517;28;20436;-68
2022/10/02 01:51:41;;;;;;;23.40;6.33;;;;;;;;;;5073385;28;20467;-68
2022/10/02 01:54:12;;;;;;;23.90;7.70;;;;;;;;;;5073373;28;20576;-68
2022/10/02 01:56:41;;;;;;;25.80;7.03;;;;;;;;;;5073338;28;20438;-68
2022/10/02 01:59:17;;;;;;;18.93;6.63;;;;;;;;;;5073890;28;20448;-68
2022/10/02 02:01:48;;;;;;;16.90;6.17;;;;;;;;;;5073317;28;20503;-68
2022/10/02 02:04:20;;;;;;;11.43;6.40;;;;;;;;;;5073406;28;20425;-68
2022/10/02 02:06:50;;;;;;;15.23;5.80;;;;;;;;;;5073276;28;20433;-68
2022/10/02 02:09:19;;;;;;;18.63;7.40;;;;;;;;;;5073240;28;20445;-68
2022/10/02 02:11:52;;;;;;;18.03;7.77;;;;;;;;;;5073219;28;20432;-68
2022/10/02 02:14:26;;;;;;;23.00;5.67;;;;;;;;;;5073408;28;20467;-67
2022/10/02 02:16:56;;;;;;;19.13;5.97;;;;;;;;;;5072418;28;20476;-68
2022/10/02 02:19:25;;;;;;;17.03;6.73;;;;;;;;;;5073155;28;20425;-68
2022/10/02 02:21:54;;;;;;;20.57;5.90;;;;;;;;;;5072668;28;20528;-67
2022/10/02 02:24:23;;;;;;;36.53;8.27;;;;;;;;;;5072991;28;20448;-68
2022/10/02 02:26:51;;;;;;;21.53;6.83;;;;;;;;;;5073000;28;20451;-68
2022/10/02 02:29:19;;;;;;;21.17;7.10;;;;;;;;;;5072959;28;20440;-68
2022/10/02 02:31:49;;;;;;;25.47;7.60;;;;;;;;;;5072977;28;20446;-68
2022/10/02 02:34:18;;;;;;;16.77;6.90;;;;;;;;;;5073814;28;20472;-68
2022/10/02 02:36:47;;;;;;;19.30;7.27;;;;;;;;;;5072553;28;20443;-67
2022/10/02 02:39:16;;;;;;;25.97;8.00;;;;;;;;;;5076532;28;20447;-67
2022/10/02 02:41:45;;;;;;;21.83;7.37;;;;;;;;;;5076782;28;20436;-67
2022/10/02 02:44:15;;;;;;;21.53;7.20;;;;;;;;;;5077152;28;20445;-68
2022/10/02 02:49:29;;;;;;;16.90;6.83;;;;;;;;;;5076116;28;20477;-67
2022/10/02 02:51:57;;;;;;;18.23;8.17;;;;;;;;;;5076297;28;20456;-68
2022/10/02 02:54:27;;;;;;;16.03;6.80;;;;;;;;;;5076447;28;20476;-68
2022/10/02 02:56:56;;;;;;;12.20;6.50;;;;;;;;;;5076181;28;20429;-68
2022/10/02 02:59:24;;;;;;;29.40;7.93;;;;;;;;;;5076437;28;20444;-68
2022/10/02 03:01:52;;;;;;;19.77;8.63;;;;;;;;;;5075909;28;20448;-68
2022/10/02 03:04:19;;;;;;;20.90;8.57;;;;;;;;;;5076325;28;20443;-68
2022/10/02 03:06:49;;;;;;;24.83;7.67;;;;;;;;;;5076166;28;20450;-69
2022/10/02 03:09:17;;;;;;;21.30;9.10;;;;;;;;;;5075991;28;20440;-69
2022/10/02 03:11:49;;;;;;;33.57;9.40;;;;;;;;;;5076124;28;20451;-69
2022/10/02 03:14:26;;;;;;;29.57;8.93;;;;;;;;;;5076786;28;20471;-69
2022/10/02 03:17:00;;;;;;;23.23;7.93;;;;;;;;;;5076187;28;20476;-69
2022/10/02 03:19:37;;;;;;;14.80;7.10;;;;;;;;;;5076350;28;20433;-70
2022/10/02 03:22:10;;;;;;;21.60;9.20;;;;;;;;;;5075966;28;20428;-70
2022/10/02 03:24:41;;;;;;;18.20;7.87;;;;;;;;;;5076070;28;20425;-70
2022/10/02 03:27:11;;;;;;;23.40;8.60;;;;;;;;;;5075513;28;20474;-70
2022/10/02 03:29:40;;;;;;;17.77;9.63;;;;;;;;;;5075874;28;20539;-70
2022/10/02 03:32:09;;;;;;;39.13;18.20;;;;;;;;;;5075392;28;20441;-70
2022/10/02 03:34:37;;;;;;;58.90;35.23;;;;;;;;;;5075407;28;20468;-70
2022/10/02 03:37:04;;;;;;;59.20;42.50;;;;;;;;;;5075343;28;20538;-70
2022/10/02 03:39:33;;;;;;;56.83;40.13;;;;;;;;;;5075328;28;20448;-70
2022/10/02 03:42:01;;;;;;;46.10;29.53;;;;;;;;;;5075542;28;20542;-71
2022/10/02 03:44:28;;;;;;;47.97;30.00;;;;;;;;;;5075871;28;20448;-70
2022/10/02 03:46:55;;;;;;;39.90;20.70;;;;;;;;;;5075345;28;20470;-70
2022/10/02 03:49:22;;;;;;;32.80;16.77;;;;;;;;;;5075480;28;20444;-70
2022/10/02 03:51:49;;;;;;;43.87;17.67;;;;;;;;;;5075509;28;20445;-70
2022/10/02 03:54:17;;;;;;;33.57;15.97;;;;;;;;;;5075618;28;20484;-70
2022/10/02 03:56:51;;;;;;;23.03;15.87;;;;;;;;;;5073447;28;20444;-70
2022/10/02 03:59:22;;;;;;;30.77;17.07;;;;;;;;;;5074511;28;20487;-69
2022/10/02 04:01:51;;;;;;;31.27;17.00;;;;;;;;;;5074950;28;20429;-70
2022/10/02 04:04:20;;;;;;;37.00;16.77;;;;;;;;;;5074608;28;20441;-70
2022/10/02 04:06:49;;;;;;;26.83;16.10;;;;;;;;;;5074622;28;20445;-70
2022/10/02 04:09:19;;;;;;;30.97;16.93;;;;;;;;;;5075078;28;20737;-70
2022/10/02 04:11:50;;;;;;;31.47;18.00;;;;;;;;;;5075088;28;20429;-70
2022/10/02 04:14:21;;;;;;;32.63;16.97;;;;;;;;;;5074777;28;20469;-70
2022/10/02 04:16:51;;;;;;;38.67;19.27;;;;;;;;;;5074783;28;20472;-70
2022/10/02 04:19:21;;;;;;;34.83;17.90;;;;;;;;;;5074900;28;20422;-69
2022/10/02 04:21:52;;;;;;;36.87;18.37;;;;;;;;;;5074913;28;20819;-69
2022/10/02 04:24:22;;;;;;;34.23;18.03;;;;;;;;;;5074748;28;20506;-70
2022/10/02 04:26:57;;;;;;;28.93;16.43;;;;;;;;;;5074541;28;20448;-69
2022/10/02 04:29:26;;;;;;;34.27;17.17;;;;;;;;;;5074592;28;20432;-70
2022/10/02 04:31:59;;;;;;;31.03;16.57;;;;;;;;;;5074482;28;20470;-69
2022/10/02 04:34:28;;;;;;;26.83;16.03;;;;;;;;;;5074423;28;20468;-69
2022/10/02 04:37:03;;;;;;;42.23;18.50;;;;;;;;;;5074268;28;20441;-69
2022/10/02 04:39:37;;;;;;;32.33;17.10;;;;;;;;;;5074384;28;20430;-69
2022/10/02 04:42:16;;;;;;;28.43;18.50;;;;;;;;;;5073996;28;20428;-69
2022/10/02 04:44:49;;;;;;;29.10;19.00;;;;;;;;;;5074376;28;20928;-69
2022/10/02 04:47:24;;;;;;;28.50;18.10;;;;;;;;;;5074175;28;20814;-69
2022/10/02 04:49:58;;;;;;;32.23;17.37;;;;;;;;;;5074317;28;20785;-69
2022/10/02 04:52:33;;;;;;;33.70;17.67;;;;;;;;;;5073847;28;20512;-69
2022/10/02 04:55:12;;;;;;;35.13;19.80;;;;;;;;;;5074290;28;20476;-69
2022/10/02 04:57:57;;;;;;;41.47;19.03;;;;;;;;;;5073612;28;20930;-69
2022/10/02 05:00:25;;;;;;;48.87;21.00;;;;;;;;;;5073608;28;20424;-69
2022/10/02 05:03:07;;;;;;;46.73;19.70;;;;;;;;;;5073836;28;20444;-69
2022/10/02 05:05:46;;;;;;;40.27;19.30;;;;;;;;;;5071536;28;20890;-70
2022/10/02 05:08:22;;;;;;;32.17;21.00;;;;;;;;;;5073548;28;20482;-70
2022/10/02 05:10:54;;;;;;;34.23;20.87;;;;;;;;;;5073511;28;21036;-70
2022/10/02 05:13:27;;;;;;;43.43;21.87;;;;;;;;;;5073131;28;20440;-71
2022/10/02 05:16:00;;;;;;;39.97;18.83;;;;;;;;;;5073291;28;20455;-70
2022/10/02 05:18:32;;;;;;;50.07;20.47;;;;;;;;;;5073348;28;20967;-70
2022/10/02 05:21:06;;;;;;;47.80;20.67;;;;;;;;;;5073871;28;20480;-70
2022/10/02 05:23:44;;;;;;;38.80;20.87;;;;;;;;;;5073520;28;20429;-71
2022/10/02 05:26:25;;;;;;;32.43;19.63;;;;;;;;;;5073165;28;20444;-69
2022/10/02 05:29:16;;;;;;;46.40;20.37;;;;;;;;;;5073434;28;20421;-69
2022/10/02 05:31:50;;;;;;;39.30;21.30;;;;;;;;;;5057882;28;20934;-70
2022/10/02 05:34:25;;;;;;;43.93;19.13;;;;;;;;;;5073171;28;20500;-69
2022/10/02 05:37:13;;;;;;;52.13;19.80;;;;;;;;;;5073544;28;20435;-69
2022/10/02 05:39:43;;;;;;;48.00;19.77;;;;;;;;;;5068264;28;20461;-69
2022/10/02 05:42:12;;;;;;;42.90;19.60;;;;;;;;;;5073101;28;20437;-69
2022/10/02 05:44:41;;;;;;;46.20;21.17;;;;;;;;;;5073236;28;20461;-69
2022/10/02 05:47:12;;;;;;;54.97;20.13;;;;;;;;;;5073030;28;20453;-69
2022/10/02 05:49:41;;;;;;;62.53;19.57;;;;;;;;;;5073091;28;20425;-69
2022/10/02 05:52:12;;;;;;;49.87;18.37;;;;;;;;;;5072774;28;20444;-69
2022/10/02 05:54:43;;;;;;;50.33;19.10;;;;;;;;;;5072634;28;20989;-69
2022/10/02 05:57:14;;;;;;;54.93;18.93;;;;;;;;;;5073091;28;20440;-70
2022/10/02 05:59:44;;;;;;;42.87;17.67;;;;;;;;;;5073039;28;20427;-71
2022/10/02 06:02:18;;;;;;;45.30;17.90;;;;;;;;;;5073118;28;20437;-70
2022/10/02 06:04:50;;;;;;;50.80;17.83;;;;;;;;;;5073135;28;20443;-70
2022/10/02 06:07:18;;;;;;;40.93;18.00;;;;;;;;;;5073068;28;20515;-70
2022/10/02 06:09:48;;;;;;;37.67;16.67;;;;;;;;;;5072973;28;20434;-70
2022/10/02 06:12:16;;;;;;;47.07;18.63;;;;;;;;;;5073769;28;20448;-70
2022/10/02 06:14:46;;;;;;;41.77;16.77;;;;;;;;;;5076593;28;20474;-69
2022/10/02 06:17:17;;;;;;;46.50;16.93;;;;;;;;;;5076714;28;20482;-69
2022/10/02 06:19:47;;;;;;;46.33;17.00;;;;;;;;;;5076970;28;20449;-70
2022/10/02 06:22:15;;;;;;;38.77;17.63;;;;;;;;;;5077089;28;20451;-69
2022/10/02 06:24:47;;;;;;;45.33;17.83;;;;;;;;;;5077074;28;20447;-69
2022/10/02 06:27:18;;;;;;;44.80;17.10;;;;;;;;;;5076664;28;20457;-70
2022/10/02 06:29:49;;;;;;;38.03;15.30;;;;;;;;;;5077067;28;20425;-69
2022/10/02 06:32:19;;;;;;;43.23;17.17;;;;;;;;;;5077184;28;20452;-69
2022/10/02 06:34:47;;;;;;;60.93;16.70;;;;;;;;;;5076717;28;20465;-69
2022/10/02 06:37:20;;;;;;;52.97;18.97;;;;;;;;;;5076853;28;20480;-69
2022/10/02 06:40:02;;;;;;;40.73;16.23;;;;;;;;;;5077096;28;20444;-69
2022/10/02 06:42:35;;;;;;;30.70;14.70;;;;;;;;;;5074178;28;20453;-69
2022/10/02 06:45:07;;;;;;;38.93;16.20;;;;;;;;;;5076323;28;20436;-69
2022/10/02 06:47:43;;;;;;;36.23;16.00;;;;;;;;;;5076975;28;20808;-70
2022/10/02 06:50:18;;;;;;;44.37;15.33;;;;;;;;;;5076450;28;20435;-70
2022/10/02 06:52:48;;;;;;;37.47;18.37;;;;;;;;;;5076867;28;20425;-69
2022/10/02 06:55:24;;;;;;;31.20;13.03;;;;;;;;;;5076526;28;20501;-69
2022/10/02 06:58:04;;;;;;;29.93;13.33;;;;;;;;;;5076643;28;20437;-69
2022/10/02 07:00:33;;;;;;;33.33;14.23;;;;;;;;;;5076055;28;20438;-69
2022/10/02 07:03:21;;;;;;;36.90;14.10;;;;;;;;;;5076382;28;20442;-71
2022/10/02 07:06:02;;;;;;;33.67;13.33;;;;;;;;;;5050923;28;20541;-71
2022/10/02 07:08:36;;;;;;;32.33;14.93;;;;;;;;;;5076832;28;20787;-70
2022/10/02 07:11:06;;;;;;;32.27;13.70;;;;;;;;;;5075762;28;20952;-70
2022/10/02 07:13:42;;;;;;;36.57;14.57;;;;;;;;;;5076117;28;20469;-70
2022/10/02 07:16:27;;;;;;;34.20;14.33;;;;;;;;;;5075466;28;20997;-70
2022/10/02 07:19:07;;;;;;;24.33;11.50;;;;;;;;;;5076659;28;20427;-70
2022/10/02 07:21:40;;;;;;;36.73;14.27;;;;;;;;;;5076391;28;20430;-70
2022/10/02 07:24:16;;;;;;;35.40;13.03;;;;;;;;;;5075526;28;20438;-69
2022/10/02 07:26:48;;;;;;;29.07;12.93;;;;;;;;;;5074717;28;20434;-70
2022/10/02 07:29:22;;;;;;;33.07;12.43;;;;;;;;;;5075589;28;20427;-70
2022/10/02 07:31:58;;;;;;;25.80;11.63;;;;;;;;;;5075521;28;20565;-70
2022/10/02 07:34:30;;;;;;;23.97;11.77;;;;;;;;;;5075667;28;20522;-69
2022/10/02 07:37:06;;;;;;;26.97;11.20;;;;;;;;;;5075898;28;20432;-69
2022/10/02 07:39:40;;;;;;;25.20;10.53;;;;;;;;;;5075701;28;20790;-69
2022/10/02 07:42:21;;;;;;;24.03;12.00;;;;;;;;;;5075617;28;20607;-69
2022/10/02 07:45:06;;;;;;;35.37;12.73;;;;;;;;;;5075518;28;20433;-69
2022/10/02 07:47:40;;;;;;;27.77;11.07;;;;;;;;;;5075039;28;20482;-69
2022/10/02 07:50:11;;;;;;;28.77;11.50;;;;;;;;;;5075265;28;20498;-69
2022/10/02 07:52:45;;;;;;;26.27;11.67;;;;;;;;;;5075915;28;20438;-69
2022/10/02 07:55:17;;;;;;;30.70;11.37;;;;;;;;;;5075497;28;20469;-69
2022/10/02 07:57:49;;;;;;;32.40;11.10;;;;;;;;;;5075329;28;20448;-69
2022/10/02 08:00:17;;;;;;;36.00;11.20;;;;;;;;;;5075164;28;20439;-69
2022/10/02 08:02:47;;;;;;;21.53;10.50;;;;;;;;;;5075324;28;20451;-69
2022/10/02 08:05:18;;;;;;;25.37;9.37;;;;;;;;;;5075002;28;20923;-70
2022/10/02 08:07:49;;;;;;;33.07;9.77;;;;;;;;;;5074441;28;20428;-69
2022/10/02 08:10:18;;;;;;;30.77;10.13;;;;;;;;;;5075021;28;20426;-69
2022/10/02 08:12:50;;;;;;;28.20;9.40;;;;;;;;;;5075080;28;20458;-69
2022/10/02 08:15:19;;;;;;;26.33;9.63;;;;;;;;;;5074514;28;20468;-69
2022/10/02 08:17:49;;;;;;;34.30;10.17;;;;;;;;;;5074364;28;21019;-69
2022/10/02 08:20:22;;;;;;;22.73;9.00;;;;;;;;;;5074250;28;20931;-69
2022/10/02 08:22:52;;;;;;;21.13;8.93;;;;;;;;;;5074797;28;20427;-69
2022/10/02 08:25:21;;;;;;;28.43;8.93;;;;;;;;;;5074213;28;20921;-69
2022/10/02 08:27:50;;;;;;;21.40;9.90;;;;;;;;;;5073805;28;20529;-69
2022/10/02 08:30:18;;;;;;;21.97;9.13;;;;;;;;;;5074422;28;20449;-69
2022/10/02 08:32:46;;;;;;;21.90;9.20;;;;;;;;;;5074415;28;20441;-69
2022/10/02 08:35:14;;;;;;;15.73;7.43;;;;;;;;;;5073407;28;20489;-68
2022/10/02 08:37:45;;;;;;;24.77;8.57;;;;;;;;;;5074106;28;20442;-69
2022/10/02 08:40:38;;;;;;;23.87;7.83;;;;;;;;;;5074302;28;20474;-68
2022/10/02 08:43:20;;;;;;;16.10;6.57;;;;;;;;;;5074837;28;20445;-69
2022/10/02 08:46:00;;;;;;;20.67;8.10;;;;;;;;;;5074182;28;20457;-69
2022/10/02 08:48:57;;;;;;;24.27;7.30;;;;;;;;;;5074063;28;20445;-69
2022/10/02 08:51:44;;;;;;;25.60;7.93;;;;;;;;;;5012323;28;20433;-69
2022/10/02 08:54:29;;;;;;;23.67;8.67;;;;;;;;;;5067949;28;20464;-68
2022/10/02 08:57:06;;;;;;;20.63;7.07;;;;;;;;;;5073850;28;20479;-68
2022/10/02 08:59:45;;;;;;;17.43;6.73;;;;;;;;;;5074141;28;20449;-68
2022/10/02 09:02:34;;;;;;;21.93;7.57;;;;;;;;;;5073914;28;20442;-68
2022/10/02 09:05:20;;;;;;;15.20;6.60;;;;;;;;;;5074267;28;20436;-68
2022/10/02 09:08:02;;;;;;;13.93;6.40;;;;;;;;;;5073653;28;20427;-68
2022/10/02 09:10:47;;;;;;;10.30;6.20;;;;;;;;;;5073939;28;20459;-68
2022/10/02 09:13:34;;;;;;;15.83;6.50;;;;;;;;;;5073941;28;20426;-68
2022/10/02 09:16:09;;;;;;;11.07;6.57;;;;;;;;;;5072985;28;21005;-68
2022/10/02 09:18:45;;;;;;;13.93;5.67;;;;;;;;;;5073847;28;20802;-68
2022/10/02 09:21:16;;;;;;;14.40;6.70;;;;;;;;;;5073354;28;20923;-68
2022/10/02 09:24:15;;;;;;;18.23;6.07;;;;;;;;;;5073732;28;20432;-68
2022/10/02 09:26:52;;;;;;;19.50;7.47;;;;;;;;;;5073764;28;20540;-68
2022/10/02 09:29:44;;;;;;;20.00;7.47;;;;;;;;;;5073539;28;20791;-68
2022/10/02 09:32:33;;;;;;;12.63;5.60;;;;;;;;;;5058486;28;20455;-69
2022/10/02 09:35:18;;;;;;;12.37;5.50;;;;;;;;;;5048683;28;21002;-68
2022/10/02 09:37:57;;;;;;;13.70;4.93;;;;;;;;;;5042759;28;20469;-68
2022/10/02 09:40:54;;;;;;;11.23;4.57;;;;;;;;;;5073433;28;20427;-68
2022/10/02 09:43:52;;;;;;;23.03;5.20;;;;;;;;;;5073344;28;20806;-68
2022/10/02 09:46:29;;;;;;;20.73;4.17;;;;;;;;;;5073077;28;20456;-68
2022/10/02 09:49:23;;;;;;;13.23;4.37;;;;;;;;;;5073422;28;20432;-68
2022/10/02 09:52:00;;;;;;;12.87;4.47;;;;;;;;;;5073366;28;20778;-68
2022/10/02 09:54:38;;;;;;;8.50;4.17;;;;;;;;;;5073354;28;20442;-68
2022/10/02 09:57:16;;;;;;;9.57;3.70;;;;;;;;;;5073302;28;20479;-69
2022/10/02 09:59:58;;;;;;;10.20;3.80;;;;;;;;;;5073490;28;20771;-68
2022/10/02 10:02:40;;;;;;;12.83;4.17;;;;;;;;;;5070912;28;20468;-68
2022/10/02 10:05:14;;;;;;;15.47;4.30;;;;;;;;;;5073501;28;20440;-68
2022/10/02 10:08:03;;;;;;;10.20;4.43;;;;;;;;;;5072928;28;20907;-68
2022/10/02 10:10:42;;;;;;;9.33;3.10;;;;;;;;;;5073935;28;20440;-69
2022/10/02 10:13:21;;;;;;;17.60;4.30;;;;;;;;;;5073213;28;20792;-69
2022/10/02 10:16:10;;;;;;;6.90;3.50;;;;;;;;;;5072957;28;20483;-68
2022/10/02 10:18:48;;;;;;;10.20;4.00;;;;;;;;;;5072745;28;20433;-68
2022/10/02 10:21:42;;;;;;;10.80;3.93;;;;;;;;;;5073444;28;20437;-69
2022/10/02 10:24:22;;;;;;;16.10;5.97;;;;;;;;;;5037736;28;20442;-69
2022/10/02 10:27:12;;;;;;;6.80;3.77;;;;;;;;;;5073308;28;20542;-69
2022/10/02 10:29:54;;;;;;;10.10;3.90;;;;;;;;;;5073375;28;20434;-68
2022/10/02 10:32:46;;;;;;;15.77;3.90;;;;;;;;;;5072581;28;20441;-69
2022/10/02 10:35:21;;;;;;;10.33;4.13;;;;;;;;;;5016465;28;20457;-68
2022/10/02 10:41:10;;;;;;;7.37;3.07;;;;;;;;;;5072770;28;20395;-68
2022/10/02 10:43:50;;;;;;;17.00;4.10;;;;;;;;;;5067982;28;20461;-68
2022/10/02 10:46:38;;;;;;;12.83;3.97;;;;;;;;;;5072618;28;20493;-68
2022/10/02 10:49:16;;;;;;;13.63;8.00;;;;;;;;;;5067783;28;20462;-68
2022/10/02 10:51:47;;;;;;;8.03;3.20;;;;;;;;;;5073398;28;20446;-68
2022/10/02 10:54:33;;;;;;;8.60;2.80;;;;;;;;;;5072680;28;20437;-68
2022/10/02 10:57:03;;;;;;;10.17;2.83;;;;;;;;;;5072984;28;20468;-68
2022/10/02 10:59:51;;;;;;;5.80;2.90;;;;;;;;;;5075322;28;20440;-68
2022/10/02 11:02:36;;;;;;;7.07;3.70;;;;;;;;;;5076067;28;20433;-68
2022/10/02 11:05:15;;;;;;;7.37;2.57;;;;;;;;;;5076590;28;20479;-68
2022/10/02 11:07:51;;;;;;;11.47;2.57;;;;;;;;;;5076651;28;20507;-68
2022/10/02 11:10:21;;;;;;;9.63;3.80;;;;;;;;;;5076464;28;20461;-68
2022/10/02 11:13:07;;;;;;;11.63;3.00;;;;;;;;;;5076166;28;20447;-68
2022/10/02 11:15:59;;;;;;;12.47;3.20;;;;;;;;;;5076131;28;20542;-69
2022/10/02 11:18:33;;;;;;;7.13;2.37;;;;;;;;;;5076191;28;20430;-68
2022/10/02 11:21:11;;;;;;;6.27;2.60;;;;;;;;;;5076102;28;20484;-68
2022/10/02 11:23:41;;;;;;;6.97;2.70;;;;;;;;;;5076026;28;20433;-68
2022/10/02 11:26:17;;;;;;;10.37;2.80;;;;;;;;;;5076165;28;20442;-68
2022/10/02 11:29:07;;;;;;;10.40;3.33;;;;;;;;;;5075969;28;20423;-68
2022/10/02 11:31:41;;;;;;;5.90;2.50;;;;;;;;;;5075819;28;20525;-68
2022/10/02 11:34:19;;;;;;;5.60;2.50;;;;;;;;;;5075788;28;20438;-68
2022/10/02 11:36:52;;;;;;;14.60;3.03;;;;;;;;;;5075439;28;20510;-69
2022/10/02 11:39:33;;;;;;;4.10;2.03;;;;;;;;;;5075753;28;20914;-69
2022/10/02 11:42:08;;;;;;;13.03;2.93;;;;;;;;;;5075784;28;20464;-68
2022/10/02 11:44:46;;;;;;;5.70;2.17;;;;;;;;;;5074151;28;20441;-68
2022/10/02 11:47:20;;;;;;;7.37;2.30;;;;;;;;;;5074921;28;20462;-67
2022/10/02 11:49:58;;;;;;;5.20;2.30;;;;;;;;;;5075396;28;20439;-68
2022/10/02 11:52:50;;;;;;;4.73;2.57;;;;;;;;;;5075256;28;20434;-68
2022/10/02 11:55:23;;;;;;;6.23;2.20;;;;;;;;;;5075402;28;20436;-68
2022/10/02 11:57:56;;;;;;;9.23;3.33;;;;;;;;;;5075266;28;20473;-68
2022/10/02 12:00:46;;;;;;;11.73;2.80;;;;;;;;;;5074842;28;20446;-68
2022/10/02 12:03:18;;;;;;;6.90;2.43;;;;;;;;;;5075191;28;20427;-68
2022/10/02 12:05:54;;;;;;;5.23;2.53;;;;;;;;;;5075290;28;20430;-67
2022/10/02 12:08:29;;;;;;;7.60;2.37;;;;;;;;;;5074676;28;20434;-67
2022/10/02 12:10:58;;;;;;;7.80;2.20;;;;;;;;;;5073590;28;20435;-67
2022/10/02 12:13:42;;;;;;;6.00;2.23;;;;;;;;;;5074553;28;20440;-66
2022/10/02 12:16:13;;;;;;;8.80;2.13;;;;;;;;;;5074376;28;20488;-67
2022/10/02 12:18:44;;;;;;;8.93;2.20;;;;;;;;;;5074597;28;20435;-66
2022/10/02 12:27:03;;;;;;;6.37;2.80;;;;;;;;;;5074749;28;20933;-66
2022/10/02 12:29:39;;;;;;;9.90;2.53;;;;;;;;;;5074850;28;20467;-66
2022/10/02 12:32:11;;;;;;;3.70;2.60;;;;;;;;;;5074366;28;20423;-67
2022/10/02 12:34:44;;;;;;;7.00;2.53;;;;;;;;;;5074291;28;20435;-67
2022/10/02 12:37:16;;;;;;;4.37;2.37;;;;;;;;;;5074033;28;20468;-67
2022/10/02 12:39:47;;;;;;;4.60;2.00;;;;;;;;;;5070868;28;20526;-68
2022/10/02 12:42:27;;;;;;;8.50;2.23;;;;;;;;;;5074465;28;20431;-67
2022/10/02 12:45:02;;;;;;;8.77;2.77;;;;;;;;;;5074056;28;20434;-67
2022/10/02 12:47:47;;;;;;;5.87;2.40;;;;;;;;;;5075154;28;20455;-67
2022/10/02 12:50:20;;;;;;;6.73;2.57;;;;;;;;;;5074194;28;20442;-67
2022/10/02 12:53:16;;;;;;;11.03;2.57;;;;;;;;;;5073710;28;20920;-67
2022/10/02 12:55:53;;;;;;;4.33;2.23;;;;;;;;;;5073820;28;20446;-68
2022/10/02 12:58:22;;;;;;;6.73;2.70;;;;;;;;;;5074097;28;20427;-67
2022/10/02 13:00:59;;;;;;;8.20;2.90;;;;;;;;;;5073919;28;20447;-67
2022/10/02 13:03:45;;;;;;;5.60;2.43;;;;;;;;;;5074463;28;20434;-67
2022/10/02 13:06:39;;;;;;;5.07;2.10;;;;;;;;;;5074058;28;20424;-67
2022/10/02 13:09:16;;;;;;;9.17;2.07;;;;;;;;;;5073306;28;20444;-67
2022/10/02 13:11:51;;;;;;;4.37;2.30;;;;;;;;;;5074004;28;20435;-66
2022/10/02 13:14:28;;;;;;;9.50;2.13;;;;;;;;;;5073976;28;20444;-67
2022/10/02 13:17:05;;;;;;;8.63;2.97;;;;;;;;;;5073376;28;20646;-67
2022/10/02 13:19:36;;;;;;;4.80;2.27;;;;;;;;;;5073679;28;20516;-66
2022/10/02 13:22:06;;;;;;;6.83;2.10;;;;;;;;;;5073518;28;20437;-67
2022/10/02 13:24:42;;;;;;;6.33;2.23;;;;;;;;;;5073244;28;20454;-66
2022/10/02 13:27:15;;;;;;;8.03;2.63;;;;;;;;;;5073608;28;20442;-66
2022/10/02 13:29:48;;;;;;;4.47;2.13;;;;;;;;;;5073517;28;20428;-67
2022/10/02 13:32:32;;;;;;;5.70;2.10;;;;;;;;;;5073686;28;20473;-67
2022/10/02 13:35:23;;;;;;;8.17;3.00;;;;;;;;;;5073087;28;20435;-66
2022/10/02 13:37:55;;;;;;;5.90;2.77;;;;;;;;;;5073347;28;20466;-66
2022/10/02 13:40:28;;;;;;;9.27;3.07;;;;;;;;;;5052764;28;20454;-67
2022/10/02 13:43:09;;;;;;;11.23;3.10;;;;;;;;;;5053314;28;20440;-67
2022/10/02 13:45:40;;;;;;;12.83;2.33;;;;;;;;;;5052927;28;20431;-66
2022/10/02 13:48:12;;;;;;;4.00;1.93;;;;;;;;;;5053365;28;20484;-67
2022/10/02 13:50:44;;;;;;;6.03;2.20;;;;;;;;;;5053522;28;20438;-66
2022/10/02 13:53:25;;;;;;;8.20;1.97;;;;;;;;;;5053541;28;20756;-66
2022/10/02 13:55:54;;;;;;;12.67;2.40;;;;;;;;;;5052737;28;20440;-66
2022/10/02 13:58:37;;;;;;;9.60;2.80;;;;;;;;;;5053067;28;20487;-65
2022/10/02 14:01:10;;;;;;;10.63;3.30;;;;;;;;;;5052783;28;20915;-66
2022/10/02 14:03:46;;;;;;;4.90;2.30;;;;;;;;;;5053233;28;20440;-66
2022/10/02 14:06:18;;;;;;;8.10;3.20;;;;;;;;;;5053009;28;20432;-66
2022/10/02 14:09:01;;;;;;;6.90;3.07;;;;;;;;;;5053158;28;20451;-66
2022/10/02 14:11:35;;;;;;;8.00;2.60;;;;;;;;;;5052897;28;20428;-66
2022/10/02 14:14:10;;;;;;;10.37;2.70;;;;;;;;;;5052843;28;20432;-65
2022/10/02 14:16:49;;;;;;;5.87;2.20;;;;;;;;;;5052858;28;20806;-66
2022/10/02 14:19:23;;;;;;;8.20;3.00;;;;;;;;;;5053065;28;20437;-66
2022/10/02 14:21:56;;;;;;;5.70;2.30;;;;;;;;;;5052889;28;20430;-65
2022/10/02 14:27:22;;;;;;;5.07;2.00;;;;;;;;;;5052708;28;20433;-66
2022/10/02 14:29:54;;;;;;;9.50;2.53;;;;;;;;;;5053263;28;20424;-67
2022/10/02 14:32:32;;;;;;;4.07;2.17;;;;;;;;;;5052910;28;20426;-66
2022/10/02 14:35:04;;;;;;;7.43;2.10;;;;;;;;;;5056567;28;20516;-66
2022/10/02 14:37:38;;;;;;;6.17;2.10;;;;;;;;;;5057275;28;20478;-66
2022/10/02 14:40:12;;;;;;;7.10;2.10;;;;;;;;;;5066935;28;20438;-67
2022/10/02 14:42:48;;;;;;;9.17;2.53;;;;;;;;;;5076610;28;20432;-66
2022/10/02 14:45:33;;;;;;;4.93;2.10;;;;;;;;;;5077363;28;20436;-66
2022/10/02 14:48:08;;;;;;;5.63;2.13;;;;;;;;;;5077151;28;20454;-66
2022/10/02 14:50:52;;;;;;;8.30;2.30;;;;;;;;;;5076628;28;20784;-66
2022/10/02 14:53:34;;;;;;;3.40;1.83;;;;;;;;;;5076722;28;20442;-66
2022/10/02 14:56:13;;;;;;;4.30;1.93;;;;;;;;;;5074039;28;20490;-66
2022/10/02 14:58:48;;;;;;;12.87;2.27;;;;;;;;;;5076323;28;20584;-67
2022/10/02 15:01:20;;;;;;;7.03;2.40;;;;;;;;;;5075233;28;20477;-66
2022/10/02 15:04:08;;;;;;;7.90;2.87;;;;;;;;;;5076215;28;20634;-66
2022/10/02 15:06:40;;;;;;;7.50;2.30;;;;;;;;;;5072411;28;20446;-65
2022/10/02 15:09:13;;;;;;;8.67;2.80;;;;;;;;;;5075956;28;20521;-66
2022/10/02 15:11:51;;;;;;;6.40;2.37;;;;;;;;;;5076035;28;20524;-66
2022/10/02 15:14:20;;;;;;;10.63;4.13;;;;;;;;;;5076361;28;20450;-66
2022/10/02 15:19:38;;;;;;;3.80;2.10;;;;;;;;;;5075738;28;20520;-66
2022/10/02 15:22:16;;;;;;;7.20;2.83;;;;;;;;;;5076274;28;20435;-66
2022/10/02 15:24:44;;;;;;;6.40;2.50;;;;;;;;;;5075887;28;20492;-65
2022/10/02 15:27:19;;;;;;;7.73;3.30;;;;;;;;;;5075501;28;20456;-66
2022/10/02 15:29:55;;;;;;;7.30;3.20;;;;;;;;;;5075663;28;20482;-65